createdAt,value
2023-05-10T00:00:42.617Z,72.30
2023-05-10T00:01:50.711Z,72.39
2023-05-10T00:02:56.979Z,72.42
2023-05-10T00:04:03.411Z,72.51
2023-05-10T00:05:10.882Z,72.57
2023-05-10T00:06:17.396Z,72.58
2023-05-10T00:07:23.820Z,72.86
2023-05-10T00:08:30.530Z,72.57
2023-05-10T00:09:37.245Z,72.72
2023-05-10T00:10:43.861Z,72.61
2023-05-10T00:11:49.847Z,72.73
2023-05-10T00:12:56.123Z,72.64
2023-05-10T00:14:02.069Z,72.51
2023-05-10T00:15:11.691Z,72.69
2023-05-10T00:16:17.585Z,72.90
2023-05-10T00:17:23.771Z,72.84
2023-05-10T00:18:29.697Z,72.86
2023-05-10T00:19:35.875Z,72.91
2023-05-10T00:20:42.332Z,72.93
2023-05-10T00:21:48.470Z,72.96
2023-05-10T00:22:54.948Z,72.93
2023-05-10T00:24:01.628Z,73.03
2023-05-10T00:25:11.554Z,73.11
2023-05-10T00:26:18.129Z,73.07
2023-05-10T00:27:24.595Z,73.21
2023-05-10T00:28:31.701Z,73.30
2023-05-10T00:29:38.152Z,73.22
2023-05-10T00:30:44.692Z,73.15
2023-05-10T00:31:51.139Z,73.02
2023-05-10T00:32:57.468Z,73.42
2023-05-10T00:34:04.068Z,73.42
2023-05-10T00:35:12.149Z,73.31
2023-05-10T00:36:17.833Z,73.53
2023-05-10T00:37:23.751Z,73.30
2023-05-10T00:38:29.847Z,73.27
2023-05-10T00:39:36.063Z,73.38
2023-05-10T00:40:42.080Z,73.66
2023-05-10T00:41:48.505Z,73.66
2023-05-10T00:42:54.613Z,73.81
2023-05-10T00:44:01.913Z,73.63
2023-05-10T00:45:09.760Z,73.63
2023-05-10T00:46:17.084Z,73.62
2023-05-10T00:47:23.741Z,73.53
2023-05-10T00:48:31.286Z,73.59
2023-05-10T00:49:37.745Z,73.92
2023-05-10T00:50:44.024Z,74.10
2023-05-10T00:51:50.667Z,73.85
2023-05-10T00:52:56.678Z,73.78
2023-05-10T00:54:03.437Z,73.93
2023-05-10T00:55:13.087Z,73.75
2023-05-10T00:56:19.191Z,73.78
2023-05-10T00:57:25.277Z,73.85
2023-05-10T00:58:32.208Z,73.87
2023-05-10T00:59:38.154Z,74.01
2023-05-10T01:00:47.472Z,73.93
2023-05-10T01:01:53.410Z,74.16
2023-05-10T01:02:59.739Z,74.00
2023-05-10T01:04:06.864Z,74.16
2023-05-10T01:05:13.658Z,74.21
2023-05-10T01:06:20.187Z,74.37
2023-05-10T01:07:26.513Z,74.63
2023-05-10T01:08:32.996Z,74.68
2023-05-10T01:09:38.866Z,74.77
2023-05-10T01:10:46.629Z,74.73
2023-05-10T01:11:52.979Z,75.23
2023-05-10T01:13:00.560Z,74.98
2023-05-10T01:14:07.973Z,75.32
2023-05-10T01:15:16.123Z,75.53
2023-05-10T01:16:22.448Z,75.81
2023-05-10T01:17:28.890Z,75.63
2023-05-10T01:18:37.556Z,75.86
2023-05-10T01:19:43.846Z,75.80
2023-05-10T01:20:56.776Z,76.15
2023-05-10T01:22:16.877Z,75.98
2023-05-10T01:23:38.811Z,76.26
2023-05-10T01:25:19.756Z,76.22
2023-05-10T01:26:46.611Z,76.34
2023-05-10T01:28:18.655Z,76.35
2023-05-10T01:30:14.951Z,76.31
2023-05-10T01:32:01.997Z,76.32
2023-05-10T01:33:17.029Z,76.40
2023-05-10T01:34:28.707Z,76.59
2023-05-10T01:35:42.824Z,76.72
2023-05-10T01:36:56.811Z,76.59
2023-05-10T01:38:12.994Z,76.77
2023-05-10T01:39:25.842Z,77.01
2023-05-10T01:40:38.624Z,76.72
2023-05-10T01:41:52.537Z,77.15
2023-05-10T01:43:03.634Z,77.29
2023-05-10T01:44:19.807Z,77.05
2023-05-10T01:45:31.750Z,77.26
2023-05-10T01:46:39.451Z,77.34
2023-05-10T01:47:50.252Z,77.39
2023-05-10T01:49:00.357Z,77.47
2023-05-10T01:50:11.706Z,77.26
2023-05-10T01:51:22.925Z,77.47
2023-05-10T01:52:38.298Z,77.60
2023-05-10T01:53:43.416Z,77.83
2023-05-10T01:54:55.236Z,77.65
2023-05-10T01:56:03.829Z,77.91
2023-05-10T01:57:15.290Z,77.67
2023-05-10T01:58:26.089Z,77.62
2023-05-10T01:59:37.443Z,77.92
2023-05-10T02:00:46.628Z,77.72
2023-05-10T02:01:52.276Z,77.40
2023-05-10T02:03:00.446Z,77.72
2023-05-10T02:04:08.213Z,77.32
2023-05-10T02:05:16.353Z,77.68
2023-05-10T02:06:25.344Z,77.29
2023-05-10T02:07:37.251Z,77.33
2023-05-10T02:08:44.311Z,77.05
2023-05-10T02:09:51.644Z,77.44
2023-05-10T02:10:59.606Z,77.14
2023-05-10T02:12:09.293Z,77.30
2023-05-10T02:13:17.261Z,76.88
2023-05-10T02:14:25.590Z,77.02
2023-05-10T02:15:33.372Z,77.20
2023-05-10T02:16:41.802Z,76.97
2023-05-10T02:17:49.739Z,77.12
2023-05-10T02:18:57.847Z,77.05
2023-05-10T02:20:07.026Z,77.05
2023-05-10T02:21:12.040Z,77.30
2023-05-10T02:22:19.502Z,77.23
2023-05-10T02:23:27.362Z,77.02
2023-05-10T02:24:35.947Z,77.09
2023-05-10T02:25:43.998Z,76.75
2023-05-10T02:26:52.593Z,76.73
2023-05-10T02:28:01.202Z,76.85
2023-05-10T02:29:09.787Z,76.88
2023-05-10T02:30:17.196Z,76.65
2023-05-10T02:31:24.313Z,76.60
2023-05-10T02:32:32.588Z,76.58
2023-05-10T02:33:41.474Z,76.79
2023-05-10T02:34:52.962Z,76.95
2023-05-10T02:36:00.357Z,76.48
2023-05-10T02:37:08.333Z,76.32
2023-05-10T02:38:14.813Z,76.26
2023-05-10T02:39:22.369Z,76.33
2023-05-10T02:40:29.588Z,76.24
2023-05-10T02:41:36.461Z,76.49
2023-05-10T02:42:45.510Z,76.61
2023-05-10T02:43:53.191Z,76.15
2023-05-10T02:45:03.897Z,76.50
2023-05-10T02:46:09.885Z,75.98
2023-05-10T02:47:16.251Z,76.25
2023-05-10T02:48:22.899Z,76.20
2023-05-10T02:49:29.327Z,75.99
2023-05-10T02:50:37.262Z,76.17
2023-05-10T02:51:47.310Z,75.91
2023-05-10T02:52:57.387Z,75.79
2023-05-10T02:54:08.526Z,75.92
2023-05-10T02:55:19.068Z,76.03
2023-05-10T02:56:36.984Z,75.97
2023-05-10T02:57:48.037Z,75.92
2023-05-10T02:58:54.282Z,76.24
2023-05-10T03:00:01.407Z,75.88
2023-05-10T03:01:09.050Z,76.04
2023-05-10T03:02:15.520Z,75.83
2023-05-10T03:03:23.312Z,76.08
2023-05-10T03:04:29.458Z,75.60
2023-05-10T03:05:36.805Z,75.82
2023-05-10T03:06:43.753Z,75.76
2023-05-10T03:07:52.995Z,76.03
2023-05-10T03:08:57.759Z,76.02
2023-05-10T03:10:04.795Z,76.20
2023-05-10T03:11:25.009Z,76.20
2023-05-10T03:12:43.374Z,75.87
2023-05-10T03:14:03.392Z,76.23
2023-05-10T03:15:18.902Z,75.95
2023-05-10T03:16:30.548Z,76.34
2023-05-10T03:17:48.150Z,76.20
2023-05-10T03:19:02.369Z,75.88
2023-05-10T03:20:15.748Z,75.99
2023-05-10T03:21:27.288Z,76.14
2023-05-10T03:22:37.388Z,76.21
2023-05-10T03:23:48.272Z,76.06
2023-05-10T03:24:58.651Z,75.81
2023-05-10T03:26:06.028Z,75.58
2023-05-10T03:27:15.364Z,75.21
2023-05-10T03:28:22.059Z,75.29
2023-05-10T03:29:29.935Z,75.25
2023-05-10T03:30:36.828Z,75.10
2023-05-10T03:31:43.252Z,75.22
2023-05-10T03:32:49.632Z,75.33
2023-05-10T03:33:55.804Z,74.91
2023-05-10T03:35:02.604Z,74.84
2023-05-10T03:36:10.653Z,74.91
2023-05-10T03:37:16.763Z,74.90
2023-05-10T03:38:22.662Z,74.94
2023-05-10T03:39:29.338Z,74.76
2023-05-10T03:40:35.500Z,74.49
2023-05-10T03:41:42.769Z,74.66
2023-05-10T03:42:48.831Z,74.48
2023-05-10T03:43:54.954Z,74.26
2023-05-10T03:45:01.037Z,74.35
2023-05-10T03:46:07.574Z,74.32
2023-05-10T03:47:13.725Z,74.00
2023-05-10T03:48:20.352Z,74.16
2023-05-10T03:49:26.373Z,73.74
2023-05-10T03:50:32.865Z,73.60
2023-05-10T03:51:39.234Z,73.69
2023-05-10T03:52:45.485Z,73.74
2023-05-10T03:53:51.574Z,73.56
2023-05-10T03:54:57.592Z,73.55
2023-05-10T03:56:04.468Z,73.84
2023-05-10T03:57:10.850Z,73.87
2023-05-10T03:58:16.581Z,73.34
2023-05-10T03:59:22.694Z,73.04
2023-05-10T04:00:28.575Z,72.99
2023-05-10T04:01:34.592Z,72.91
2023-05-10T04:02:41.564Z,72.85
2023-05-10T04:03:48.062Z,72.93
2023-05-10T04:04:54.125Z,72.89
2023-05-10T04:06:04.022Z,73.07
2023-05-10T04:07:11.530Z,72.77
2023-05-10T04:08:18.231Z,72.79
2023-05-10T04:09:24.416Z,72.75
2023-05-10T04:10:30.137Z,72.83
2023-05-10T04:11:36.666Z,72.91
2023-05-10T04:12:43.348Z,72.74
2023-05-10T04:13:50.297Z,72.71
2023-05-10T04:14:56.143Z,72.59
2023-05-10T04:16:02.496Z,72.71
2023-05-10T04:17:08.932Z,72.60
2023-05-10T04:18:15.210Z,72.43
2023-05-10T04:19:21.432Z,72.29
2023-05-10T04:20:27.496Z,72.30
2023-05-10T04:21:33.488Z,72.43
2023-05-10T04:22:39.827Z,72.39
2023-05-10T04:23:46.290Z,72.39
2023-05-10T04:24:52.153Z,72.59
2023-05-10T04:26:03.201Z,72.56
2023-05-10T04:27:09.276Z,72.50
2023-05-10T04:28:15.492Z,72.77
2023-05-10T04:29:21.528Z,72.64
2023-05-10T04:30:29.755Z,72.75
2023-05-10T04:31:37.404Z,72.89
2023-05-10T04:32:44.853Z,72.82
2023-05-10T04:33:51.569Z,72.80
2023-05-10T04:34:57.747Z,72.70
2023-05-10T04:36:05.218Z,72.55
2023-05-10T04:37:11.062Z,72.54
2023-05-10T04:38:18.546Z,72.40
2023-05-10T04:39:24.760Z,72.37
2023-05-10T04:40:31.066Z,72.47
2023-05-10T04:41:38.647Z,72.15
2023-05-10T04:42:44.957Z,72.11
2023-05-10T04:43:50.872Z,71.82
2023-05-10T04:44:57.311Z,71.70
2023-05-10T04:46:03.824Z,71.65
2023-05-10T04:47:12.608Z,71.55
2023-05-10T04:48:18.747Z,71.35
2023-05-10T04:49:25.144Z,71.14
2023-05-10T04:50:31.058Z,71.04
2023-05-10T04:51:37.079Z,70.77
2023-05-10T04:52:42.935Z,70.77
2023-05-10T04:54:01.659Z,70.79
2023-05-10T04:55:12.451Z,70.60
2023-05-10T04:56:18.552Z,70.52
2023-05-10T04:57:24.795Z,69.94
2023-05-10T04:58:30.874Z,70.07
2023-05-10T04:59:39.094Z,70.05
2023-05-10T05:00:45.331Z,70.15
2023-05-10T05:01:51.319Z,70.38
2023-05-10T05:02:57.403Z,70.33
2023-05-10T05:04:04.108Z,70.32
2023-05-10T05:05:11.229Z,70.32
2023-05-10T05:06:17.332Z,69.44
2023-05-10T05:07:23.710Z,69.21
2023-05-10T05:08:29.854Z,69.29
2023-05-10T05:09:35.778Z,69.14
2023-05-10T05:10:41.611Z,69.13
2023-05-10T05:11:47.909Z,69.21
2023-05-10T05:12:54.247Z,68.77
2023-05-10T05:14:01.442Z,68.72
2023-05-10T05:15:10.827Z,68.87
2023-05-10T05:16:17.663Z,68.96
2023-05-10T05:17:23.779Z,68.50
2023-05-10T05:18:29.753Z,68.58
2023-05-10T05:19:37.343Z,68.55
2023-05-10T05:20:43.357Z,68.13
2023-05-10T05:21:49.356Z,67.88
2023-05-10T05:22:55.146Z,68.01
2023-05-10T05:24:02.269Z,68.07
2023-05-10T05:25:10.955Z,68.12
2023-05-10T05:26:17.191Z,68.02
2023-05-10T05:27:26.092Z,67.68
2023-05-10T05:28:35.373Z,67.67
2023-05-10T05:29:42.218Z,67.55
2023-05-10T05:30:49.183Z,67.24
2023-05-10T05:31:55.689Z,67.25
2023-05-10T05:33:02.078Z,67.29
2023-05-10T05:34:08.360Z,67.34
2023-05-10T05:35:15.056Z,67.70
2023-05-10T05:36:21.097Z,67.51
2023-05-10T05:37:27.840Z,67.34
2023-05-10T05:38:39.537Z,67.60
2023-05-10T05:39:46.168Z,67.22
2023-05-10T05:40:51.905Z,67.30
2023-05-10T05:41:57.937Z,67.59
2023-05-10T05:43:04.379Z,67.42
2023-05-10T05:44:11.096Z,67.08
2023-05-10T05:45:18.112Z,66.58
2023-05-10T05:46:24.403Z,66.14
2023-05-10T05:47:30.443Z,66.28
2023-05-10T05:48:36.774Z,66.22
2023-05-10T05:49:43.184Z,66.43
2023-05-10T05:50:49.020Z,66.38
2023-05-10T05:51:55.813Z,66.37
2023-05-10T05:53:02.150Z,66.79
2023-05-10T05:54:09.369Z,66.59
2023-05-10T05:55:16.043Z,67.08
2023-05-10T05:56:25.550Z,66.96
2023-05-10T05:57:30.314Z,66.98
2023-05-10T05:58:36.740Z,66.47
2023-05-10T05:59:45.082Z,66.75
2023-05-10T06:00:51.577Z,66.12
2023-05-10T06:01:58.447Z,66.58
2023-05-10T06:03:04.722Z,66.34
2023-05-10T06:04:11.519Z,66.30
2023-05-10T06:05:19.534Z,66.21
2023-05-10T06:06:26.088Z,65.86
2023-05-10T06:07:31.931Z,66.14
2023-05-10T06:08:44.589Z,65.95
2023-05-10T06:09:50.633Z,65.93
2023-05-10T06:10:56.578Z,66.03
2023-05-10T06:12:02.732Z,65.50
2023-05-10T06:13:09.379Z,65.09
2023-05-10T06:14:15.239Z,65.24
2023-05-10T06:15:21.703Z,65.29
2023-05-10T06:16:27.897Z,65.00
2023-05-10T06:17:34.056Z,64.90
2023-05-10T06:18:40.767Z,64.08
2023-05-10T06:19:46.839Z,64.14
2023-05-10T06:20:54.337Z,64.24
2023-05-10T06:22:00.451Z,64.41
2023-05-10T06:23:06.600Z,63.68
2023-05-10T06:24:12.667Z,63.51
2023-05-10T06:25:19.582Z,63.08
2023-05-10T06:26:26.606Z,63.96
2023-05-10T06:27:32.522Z,63.28
2023-05-10T06:28:41.267Z,64.09
2023-05-10T06:29:48.226Z,63.61
2023-05-10T06:30:54.691Z,62.38
2023-05-10T06:32:01.046Z,62.10
2023-05-10T06:33:07.475Z,61.78
2023-05-10T06:34:15.909Z,61.33
2023-05-10T06:35:22.154Z,60.67
2023-05-10T06:36:28.927Z,61.06
2023-05-10T06:37:35.696Z,62.04
2023-05-10T06:38:42.270Z,61.20
2023-05-10T06:39:48.741Z,60.76
2023-05-10T06:40:55.436Z,60.89
2023-05-10T06:42:05.921Z,61.56
2023-05-10T06:43:12.201Z,60.47
2023-05-10T06:44:18.054Z,60.32
2023-05-10T06:45:24.132Z,60.27
2023-05-10T06:46:30.370Z,59.82
2023-05-10T06:47:39.257Z,59.74
2023-05-10T06:48:45.824Z,60.28
2023-05-10T06:49:52.386Z,60.48
2023-05-10T06:50:58.364Z,60.89
2023-05-10T06:52:05.824Z,60.50
2023-05-10T06:53:13.808Z,60.49
2023-05-10T06:54:20.160Z,60.38
2023-05-10T06:55:26.945Z,60.69
2023-05-10T06:56:33.126Z,60.20
2023-05-10T06:57:39.499Z,59.91
2023-05-10T06:58:45.989Z,59.37
2023-05-10T06:59:52.636Z,59.61
2023-05-10T07:01:06.403Z,59.05
2023-05-10T07:02:12.419Z,58.70
2023-05-10T07:03:19.233Z,58.95
2023-05-10T07:04:25.633Z,59.10
2023-05-10T07:05:31.921Z,59.06
2023-05-10T07:06:37.886Z,58.08
2023-05-10T07:07:44.027Z,57.98
2023-05-10T07:08:50.278Z,58.74
2023-05-10T07:09:57.790Z,59.59
2023-05-10T07:11:05.337Z,56.62
2023-05-10T07:12:15.426Z,56.18
2023-05-10T07:13:22.241Z,55.92
2023-05-10T07:14:28.849Z,56.85
2023-05-10T07:15:35.400Z,56.71
2023-05-10T07:16:42.080Z,54.56
2023-05-10T07:17:48.844Z,54.08
2023-05-10T07:18:57.044Z,52.96
2023-05-10T07:20:05.331Z,52.48
2023-05-10T07:21:12.249Z,52.25
2023-05-10T07:22:19.198Z,53.59
2023-05-10T07:23:26.647Z,53.49
2023-05-10T07:24:33.295Z,52.00
2023-05-10T07:25:39.381Z,49.90
2023-05-10T07:26:45.571Z,49.87
2023-05-10T07:27:52.208Z,49.39
2023-05-10T07:28:58.344Z,48.34
2023-05-10T07:30:04.935Z,48.49
2023-05-10T07:31:11.279Z,49.91
2023-05-10T07:32:17.654Z,48.94
2023-05-10T07:33:23.737Z,48.68
2023-05-10T07:34:31.349Z,49.31
2023-05-10T07:35:37.316Z,47.05
2023-05-10T07:36:44.371Z,46.52
2023-05-10T07:37:50.426Z,46.45
2023-05-10T07:38:58.841Z,46.37
2023-05-10T07:40:05.891Z,45.35
2023-05-10T07:41:12.858Z,45.89
2023-05-10T07:42:19.226Z,46.93
2023-05-10T07:43:25.390Z,46.64
2023-05-10T07:44:31.541Z,46.78
2023-05-10T07:45:38.128Z,45.84
2023-05-10T07:46:43.990Z,45.94
2023-05-10T07:47:50.376Z,46.01
2023-05-10T07:48:56.941Z,45.33
2023-05-10T07:50:04.378Z,45.31
2023-05-10T07:51:11.761Z,45.54
2023-05-10T07:52:18.067Z,45.74
2023-05-10T07:53:24.641Z,45.89
2023-05-10T07:54:30.500Z,45.80
2023-05-10T07:55:37.879Z,46.45
2023-05-10T07:56:48.548Z,46.14
2023-05-10T07:57:55.175Z,45.16
2023-05-10T07:59:04.736Z,45.18
2023-05-10T08:00:18.840Z,46.10
2023-05-10T08:01:25.749Z,46.56
2023-05-10T08:02:32.304Z,46.64
2023-05-10T08:03:39.249Z,45.74
2023-05-10T08:04:45.660Z,45.03
2023-05-10T08:05:53.088Z,45.31
2023-05-10T08:06:59.456Z,45.77
2023-05-10T08:08:06.144Z,46.72
2023-05-10T08:09:13.755Z,46.38
2023-05-10T08:10:22.050Z,46.70
2023-05-10T08:11:29.300Z,46.82
2023-05-10T08:12:35.573Z,46.51
2023-05-10T08:13:41.610Z,47.05
2023-05-10T08:14:48.867Z,46.89
2023-05-10T08:15:55.734Z,46.69
2023-05-10T08:17:02.169Z,46.66
2023-05-10T08:18:08.556Z,46.48
2023-05-10T08:19:15.438Z,46.36
2023-05-10T08:20:22.032Z,46.17
2023-05-10T08:21:29.202Z,46.43
2023-05-10T08:22:35.727Z,46.23
2023-05-10T08:23:45.173Z,46.49
2023-05-10T08:24:53.681Z,46.75
2023-05-10T08:26:00.211Z,46.86
2023-05-10T08:27:06.494Z,46.69
2023-05-10T08:28:12.648Z,46.05
2023-05-10T08:29:18.796Z,46.24
2023-05-10T08:30:25.482Z,45.81
2023-05-10T08:31:31.720Z,45.86
2023-05-10T08:32:39.833Z,45.49
2023-05-10T08:33:46.376Z,45.24
2023-05-10T08:34:52.910Z,45.48
2023-05-10T08:36:00.193Z,45.13
2023-05-10T08:37:06.354Z,45.71
2023-05-10T08:38:12.347Z,45.54
2023-05-10T08:39:29.261Z,44.09
2023-05-10T08:40:38.559Z,45.08
2023-05-10T08:41:48.529Z,44.96
2023-05-10T08:42:59.861Z,44.01
2023-05-10T08:44:08.832Z,43.17
2023-05-10T08:45:17.021Z,43.26
2023-05-10T08:46:24.391Z,41.31
2023-05-10T08:47:32.010Z,41.27
2023-05-10T08:48:40.088Z,40.79
2023-05-10T08:49:49.131Z,41.16
2023-05-10T08:50:58.697Z,41.87
2023-05-10T08:52:08.598Z,42.84
2023-05-10T08:53:16.313Z,43.13
2023-05-10T08:54:22.685Z,42.00
2023-05-10T08:55:28.951Z,42.69
2023-05-10T08:56:34.798Z,41.36
2023-05-10T08:57:40.714Z,42.19
2023-05-10T08:58:47.056Z,42.89
2023-05-10T08:59:53.194Z,42.32
2023-05-10T09:01:00.393Z,42.69
2023-05-10T09:02:07.433Z,43.17
2023-05-10T09:03:13.878Z,42.50
2023-05-10T09:04:20.449Z,42.63
2023-05-10T09:05:26.936Z,42.70
2023-05-10T09:06:34.152Z,42.98
2023-05-10T09:07:40.080Z,42.56
2023-05-10T09:08:48.727Z,43.06
2023-05-10T09:09:56.921Z,43.04
2023-05-10T09:11:04.148Z,43.26
2023-05-10T09:12:12.694Z,43.91
2023-05-10T09:13:21.226Z,42.28
2023-05-10T09:14:28.171Z,42.46
2023-05-10T09:15:34.268Z,42.44
2023-05-10T09:16:40.833Z,41.45
2023-05-10T09:17:48.589Z,40.69
2023-05-10T09:18:56.209Z,40.93
2023-05-10T09:20:06.202Z,41.56
2023-05-10T09:21:13.884Z,42.21
2023-05-10T09:22:21.250Z,43.10
2023-05-10T09:23:33.676Z,42.70
2023-05-10T09:24:43.585Z,42.32
2023-05-10T09:26:04.071Z,42.49
2023-05-10T09:27:10.875Z,42.57
2023-05-10T09:28:17.352Z,42.65
2023-05-10T09:29:23.890Z,42.31
2023-05-10T09:30:31.898Z,41.97
2023-05-10T09:31:58.275Z,41.46
2023-05-10T09:33:06.292Z,41.98
2023-05-10T09:34:11.996Z,42.46
2023-05-10T09:35:20.415Z,41.99
2023-05-10T09:36:26.361Z,41.45
2023-05-10T09:37:33.744Z,41.69
2023-05-10T09:38:49.938Z,41.19
2023-05-10T09:39:57.946Z,41.15
2023-05-10T09:41:04.661Z,40.79
2023-05-10T09:42:12.065Z,40.21
2023-05-10T09:43:18.214Z,40.32
2023-05-10T09:44:24.618Z,40.26
2023-05-10T09:45:32.166Z,40.63
2023-05-10T09:46:39.184Z,40.44
2023-05-10T09:47:47.269Z,39.51
2023-05-10T09:48:54.617Z,38.92
2023-05-10T09:50:04.681Z,39.05
2023-05-10T09:51:11.819Z,38.39
2023-05-10T09:52:18.272Z,37.62
2023-05-10T09:53:24.712Z,37.84
2023-05-10T09:54:33.894Z,37.43
2023-05-10T09:55:50.374Z,37.35
2023-05-10T09:56:56.592Z,38.49
2023-05-10T09:58:03.819Z,38.96
2023-05-10T09:59:12.403Z,39.56
2023-05-10T10:00:22.898Z,40.17
2023-05-10T10:01:31.616Z,38.93
2023-05-10T10:02:39.787Z,38.13
2023-05-10T10:03:46.851Z,38.39
2023-05-10T10:04:54.425Z,38.82
2023-05-10T10:06:00.699Z,39.12
2023-05-10T10:07:08.054Z,40.19
2023-05-10T10:08:15.426Z,39.99
2023-05-10T10:09:21.796Z,40.32
2023-05-10T10:10:29.300Z,40.54
2023-05-10T10:11:37.570Z,40.65
2023-05-10T10:12:46.031Z,40.81
2023-05-10T10:13:52.755Z,40.54
2023-05-10T10:15:00.865Z,40.33
2023-05-10T10:16:09.514Z,40.17
2023-05-10T10:17:16.136Z,38.19
2023-05-10T10:18:28.091Z,38.86
2023-05-10T10:19:37.125Z,39.07
2023-05-10T10:20:45.444Z,39.29
2023-05-10T10:21:52.576Z,39.16
2023-05-10T10:22:58.972Z,38.85
2023-05-10T10:24:08.608Z,38.44
2023-05-10T10:25:16.566Z,37.40
2023-05-10T10:26:26.248Z,37.00
2023-05-10T10:27:49.609Z,36.89
2023-05-10T10:29:08.901Z,37.69
2023-05-10T10:30:26.261Z,37.52
2023-05-10T10:31:40.230Z,37.08
2023-05-10T10:33:20.122Z,37.41
2023-05-10T10:34:34.802Z,37.40
2023-05-10T10:35:41.982Z,37.75
2023-05-10T10:36:49.902Z,37.64
2023-05-10T10:37:56.392Z,38.10
2023-05-10T10:39:04.095Z,38.32
2023-05-10T10:40:27.372Z,37.98
2023-05-10T10:41:36.717Z,36.84
2023-05-10T10:42:48.451Z,37.18
2023-05-10T10:44:27.929Z,37.27
2023-05-10T10:45:34.443Z,37.34
2023-05-10T10:47:06.956Z,36.45
2023-05-10T10:48:27.084Z,36.30
2023-05-10T10:49:38.289Z,36.90
2023-05-10T10:50:48.471Z,37.07
2023-05-10T10:52:24.942Z,36.80
2023-05-10T10:53:32.054Z,36.15
2023-05-10T10:54:38.361Z,36.42
2023-05-10T10:55:50.533Z,36.49
2023-05-10T10:57:16.781Z,36.44
2023-05-10T10:58:35.492Z,35.76
2023-05-10T10:59:46.691Z,36.59
2023-05-10T11:01:13.612Z,36.26
2023-05-10T11:02:45.692Z,35.90
2023-05-10T11:04:21.668Z,36.03
2023-05-10T11:05:45.952Z,35.39
2023-05-10T11:06:52.065Z,35.87
2023-05-10T11:08:00.166Z,35.63
2023-05-10T11:09:12.890Z,35.25
2023-05-10T11:10:22.151Z,34.86
2023-05-10T11:11:28.451Z,34.45
2023-05-10T11:12:34.635Z,34.63
2023-05-10T11:13:45.464Z,34.03
2023-05-10T11:14:58.523Z,34.80
2023-05-10T11:16:15.025Z,35.28
2023-05-10T11:17:28.561Z,34.93
2023-05-10T11:18:34.570Z,35.00
2023-05-10T11:20:11.583Z,34.45
2023-05-10T11:21:18.226Z,33.65
2023-05-10T11:22:28.768Z,33.98
2023-05-10T11:23:50.144Z,34.09
2023-05-10T11:25:07.902Z,34.03
2023-05-10T11:26:14.848Z,33.84
2023-05-10T11:27:21.721Z,32.71
2023-05-10T11:28:29.446Z,32.02
2023-05-10T11:29:35.466Z,31.42
2023-05-10T11:30:44.353Z,31.48
2023-05-10T11:31:51.045Z,31.66
2023-05-10T11:32:58.046Z,31.36
2023-05-10T11:34:03.925Z,29.90
2023-05-10T11:35:14.840Z,30.57
2023-05-10T11:36:22.685Z,30.51
2023-05-10T11:37:35.165Z,29.92
2023-05-10T11:38:41.279Z,30.31
2023-05-10T11:39:49.669Z,30.98
2023-05-10T11:40:56.116Z,31.15
2023-05-10T11:42:02.813Z,30.47
2023-05-10T11:43:13.260Z,30.44
2023-05-10T11:44:19.404Z,30.96
2023-05-10T11:45:27.811Z,30.52
2023-05-10T11:46:35.514Z,30.02
2023-05-10T11:47:44.568Z,29.54
2023-05-10T11:48:54.465Z,29.23
2023-05-10T11:50:01.116Z,29.93
2023-05-10T11:51:07.590Z,30.57
2023-05-10T11:52:13.639Z,30.44
2023-05-10T11:53:21.524Z,30.09
2023-05-10T11:54:27.743Z,31.11
2023-05-10T11:55:36.252Z,31.30
2023-05-10T11:56:43.095Z,31.98
2023-05-10T11:57:52.697Z,32.44
2023-05-10T11:59:01.222Z,32.51
2023-05-10T12:00:10.428Z,32.40
2023-05-10T12:01:16.471Z,32.49
2023-05-10T12:02:22.651Z,32.50
2023-05-10T12:03:30.159Z,32.72
2023-05-10T12:04:36.502Z,32.47
2023-05-10T12:05:43.200Z,32.12
2023-05-10T12:06:49.788Z,31.69
2023-05-10T12:08:11.499Z,31.58
2023-05-10T12:09:19.202Z,31.60
2023-05-10T12:10:29.867Z,31.73
2023-05-10T12:11:43.556Z,31.85
2023-05-10T12:12:53.542Z,31.87
2023-05-10T12:13:59.684Z,31.93
2023-05-10T12:15:11.554Z,31.73
2023-05-10T12:16:19.319Z,30.27
2023-05-10T12:17:30.019Z,30.33
2023-05-10T12:18:40.079Z,29.57
2023-05-10T12:19:48.359Z,29.19
2023-05-10T12:20:55.747Z,29.85
2023-05-10T12:22:05.356Z,30.19
2023-05-10T12:23:14.387Z,30.71
2023-05-10T12:24:22.566Z,30.93
2023-05-10T12:25:40.460Z,31.09
2023-05-10T12:26:49.668Z,31.18
2023-05-10T12:27:58.790Z,31.55
2023-05-10T12:29:19.310Z,31.06
2023-05-10T12:30:27.494Z,31.25
2023-05-10T12:31:33.756Z,31.67
2023-05-10T12:32:45.188Z,31.79
2023-05-10T12:33:51.690Z,31.80
2023-05-10T12:34:58.710Z,31.08
2023-05-10T12:36:06.085Z,30.44
2023-05-10T12:37:12.063Z,30.69
2023-05-10T12:38:33.479Z,31.01
2023-05-10T12:39:47.518Z,32.04
2023-05-10T12:40:54.152Z,31.85
2023-05-10T12:42:01.374Z,32.28
2023-05-10T12:43:07.517Z,32.71
2023-05-10T12:44:14.169Z,33.06
2023-05-10T12:45:21.011Z,33.45
2023-05-10T12:46:28.884Z,33.01
2023-05-10T12:47:36.069Z,33.38
2023-05-10T12:48:44.327Z,33.99
2023-05-10T12:49:50.758Z,34.29
2023-05-10T12:50:57.022Z,34.12
2023-05-10T12:52:02.758Z,33.53
2023-05-10T12:53:10.026Z,34.42
2023-05-10T12:54:15.988Z,34.10
2023-05-10T12:55:22.152Z,34.07
2023-05-10T12:56:35.136Z,34.61
2023-05-10T12:57:41.127Z,34.70
2023-05-10T12:58:50.050Z,34.43
2023-05-10T12:59:57.217Z,34.77
2023-05-10T13:01:04.274Z,33.93
2023-05-10T13:02:12.162Z,33.27
2023-05-10T13:03:17.961Z,33.82
2023-05-10T13:04:24.672Z,33.95
2023-05-10T13:05:30.821Z,33.85
2023-05-10T13:06:37.081Z,33.76
2023-05-10T13:07:44.966Z,33.57
2023-05-10T13:08:50.751Z,33.93
2023-05-10T13:09:56.664Z,33.11
2023-05-10T13:11:03.844Z,33.74
2023-05-10T13:12:10.923Z,33.53
2023-05-10T13:13:17.279Z,33.68
2023-05-10T13:14:23.628Z,33.93
2023-05-10T13:15:29.883Z,33.31
2023-05-10T13:16:36.466Z,33.86
2023-05-10T13:17:43.774Z,33.84
2023-05-10T13:18:50.285Z,33.33
2023-05-10T13:19:56.841Z,33.21
2023-05-10T13:21:05.160Z,33.41
2023-05-10T13:22:11.594Z,34.00
2023-05-10T13:23:17.953Z,33.78
2023-05-10T13:24:23.762Z,33.75
2023-05-10T13:25:30.108Z,33.81
2023-05-10T13:26:37.689Z,33.36
2023-05-10T13:27:43.803Z,33.62
2023-05-10T13:28:50.665Z,34.11
2023-05-10T13:29:56.459Z,34.47
2023-05-10T13:31:02.781Z,34.49
2023-05-10T13:32:09.713Z,34.75
2023-05-10T13:33:16.174Z,34.58
2023-05-10T13:34:22.518Z,34.63
2023-05-10T13:35:28.310Z,34.88
2023-05-10T13:36:34.649Z,34.96
2023-05-10T13:37:40.566Z,35.18
2023-05-10T13:38:46.704Z,35.33
2023-05-10T13:39:52.694Z,35.17
2023-05-10T13:40:59.148Z,35.03
2023-05-10T13:42:05.326Z,35.54
2023-05-10T13:43:12.430Z,35.30
2023-05-10T13:44:19.175Z,35.27
2023-05-10T13:45:25.235Z,35.58
2023-05-10T13:46:32.256Z,35.71
2023-05-10T13:47:38.450Z,35.45
2023-05-10T13:48:45.126Z,35.33
2023-05-10T13:49:50.937Z,35.34
2023-05-10T13:50:57.300Z,35.46
2023-05-10T13:52:08.367Z,35.13
2023-05-10T13:53:16.938Z,34.88
2023-05-10T13:54:26.492Z,34.77
2023-05-10T13:55:32.793Z,34.47
2023-05-10T13:56:38.934Z,34.45
2023-05-10T13:57:45.105Z,34.68
2023-05-10T13:58:50.873Z,34.77
2023-05-10T13:59:58.346Z,34.93
2023-05-10T14:01:04.162Z,34.57
2023-05-10T14:02:13.806Z,33.98
2023-05-10T14:03:20.130Z,33.76
2023-05-10T14:04:26.594Z,33.50
2023-05-10T14:05:32.439Z,33.84
2023-05-10T14:06:38.893Z,33.07
2023-05-10T14:07:44.734Z,32.90
2023-05-10T14:08:50.695Z,33.03
2023-05-10T14:09:57.814Z,32.95
2023-05-10T14:11:04.248Z,32.54
2023-05-10T14:12:10.508Z,32.29
2023-05-10T14:13:16.637Z,31.79
2023-05-10T14:14:22.977Z,31.89
2023-05-10T14:15:29.158Z,31.52
2023-05-10T14:16:35.570Z,31.47
2023-05-10T14:17:41.974Z,31.49
2023-05-10T14:18:48.677Z,31.13
2023-05-10T14:19:55.467Z,31.23
2023-05-10T14:21:02.709Z,30.95
2023-05-10T14:22:08.481Z,31.16
2023-05-10T14:23:14.252Z,31.12
2023-05-10T14:24:20.403Z,31.02
2023-05-10T14:25:27.346Z,30.71
2023-05-10T14:26:34.368Z,30.85
2023-05-10T14:27:40.718Z,30.86
2023-05-10T14:28:47.338Z,30.24
2023-05-10T14:29:56.300Z,30.41
2023-05-10T14:31:03.464Z,30.44
2023-05-10T14:32:13.601Z,29.96
2023-05-10T14:33:23.480Z,29.71
2023-05-10T14:34:29.580Z,29.82
2023-05-10T14:35:35.633Z,29.85
2023-05-10T14:36:41.623Z,29.39
2023-05-10T14:37:48.760Z,29.02
2023-05-10T14:38:54.928Z,28.71
2023-05-10T14:40:00.886Z,28.09
2023-05-10T14:41:07.059Z,27.35